Time;durP1;ratioP1;P1;durP2;ratioP2;P2;SDS_P1;SDS_P2;PMS_P1;PMS_P2;Temp;Humidity;BMP_temperature;BMP_pressure;BME280_temperature;BME280_humidity;BME280_pressure;Samples;Min_cycle;Max_cycle;Signal;HPM_P1;HPM_P2
2022/02/12 00:00:52;;;;;;;3.57;1.97;;;;;;;;;;5078957;28;20485;-73
2022/02/12 00:03:21;;;;;;;4.57;2.27;;;;;;;;;;5078639;28;20803;-73
2022/02/12 00:05:49;;;;;;;7.33;2.73;;;;;;;;;;5078923;28;20444;-73
2022/02/12 00:08:17;;;;;;;3.57;2.10;;;;;;;;;;5078609;28;20444;-73
2022/02/12 00:10:45;;;;;;;5.93;2.40;;;;;;;;;;5079113;28;20441;-73
2022/02/12 00:13:13;;;;;;;3.07;2.30;;;;;;;;;;5078659;28;20806;-73
2022/02/12 00:15:41;;;;;;;3.23;2.47;;;;;;;;;;5078325;28;20974;-73
2022/02/12 00:18:09;;;;;;;3.67;2.10;;;;;;;;;;5078611;28;20961;-73
2022/02/12 00:20:39;;;;;;;3.80;2.07;;;;;;;;;;5078704;28;21006;-73
2022/02/12 00:23:07;;;;;;;3.90;2.40;;;;;;;;;;5078390;28;20473;-73
2022/02/12 00:25:35;;;;;;;6.50;2.63;;;;;;;;;;5074584;28;20463;-73
2022/02/12 00:28:03;;;;;;;3.43;2.57;;;;;;;;;;5077200;28;20444;-73
2022/02/12 00:30:31;;;;;;;6.10;2.87;;;;;;;;;;5078378;28;20447;-73
2022/02/12 00:33:01;;;;;;;5.33;2.27;;;;;;;;;;5078356;28;20452;-73
2022/02/12 00:35:29;;;;;;;3.77;2.63;;;;;;;;;;5078452;28;20490;-73
2022/02/12 00:37:58;;;;;;;3.80;2.57;;;;;;;;;;5078281;28;20471;-73
2022/02/12 00:40:27;;;;;;;2.40;2.00;;;;;;;;;;5078236;28;20491;-73
2022/02/12 00:42:55;;;;;;;5.93;2.80;;;;;;;;;;5078077;28;20444;-73
2022/02/12 00:45:23;;;;;;;3.90;2.20;;;;;;;;;;5076959;28;20455;-73
2022/02/12 00:47:51;;;;;;;5.57;2.07;;;;;;;;;;5078242;28;20555;-73
2022/02/12 00:50:19;;;;;;;3.20;2.33;;;;;;;;;;5077726;28;20562;-73
2022/02/12 00:52:47;;;;;;;5.40;2.77;;;;;;;;;;5077754;28;20464;-73
2022/02/12 00:55:16;;;;;;;3.83;1.93;;;;;;;;;;5077857;28;20448;-73
2022/02/12 00:57:44;;;;;;;2.53;2.03;;;;;;;;;;5077739;28;20233;-73
2022/02/12 01:00:13;;;;;;;4.63;2.60;;;;;;;;;;5077666;28;20237;-73
2022/02/12 01:02:41;;;;;;;3.47;2.30;;;;;;;;;;5077925;28;20458;-73
2022/02/12 01:05:11;;;;;;;6.13;2.67;;;;;;;;;;5077882;28;20518;-73
2022/02/12 01:07:39;;;;;;;3.03;2.33;;;;;;;;;;5077915;28;20236;-73
2022/02/12 01:10:07;;;;;;;4.33;2.33;;;;;;;;;;5077756;28;20210;-73
2022/02/12 01:12:37;;;;;;;4.07;2.60;;;;;;;;;;5077534;28;20444;-73
2022/02/12 01:15:06;;;;;;;5.97;2.83;;;;;;;;;;5077953;28;20440;-73
2022/02/12 01:17:35;;;;;;;7.53;2.53;;;;;;;;;;5074235;28;20456;-72
2022/02/12 01:20:03;;;;;;;3.70;2.40;;;;;;;;;;5069902;28;20487;-73
2022/02/12 01:22:31;;;;;;;3.67;2.53;;;;;;;;;;5077381;28;20486;-73
2022/02/12 01:24:59;;;;;;;6.20;2.30;;;;;;;;;;5072280;28;20460;-73
2022/02/12 01:27:27;;;;;;;6.40;2.50;;;;;;;;;;5068592;28;20464;-73
2022/02/12 01:29:56;;;;;;;10.63;3.20;;;;;;;;;;5077074;28;20453;-73
2022/02/12 01:32:24;;;;;;;5.10;2.73;;;;;;;;;;5077488;28;20811;-73
2022/02/12 01:34:52;;;;;;;3.93;2.17;;;;;;;;;;5077272;28;20665;-73
2022/02/12 01:37:21;;;;;;;4.67;2.43;;;;;;;;;;5077455;28;20322;-73
2022/02/12 01:39:49;;;;;;;3.33;2.53;;;;;;;;;;5077409;28;20451;-73
2022/02/12 01:42:17;;;;;;;6.57;2.50;;;;;;;;;;5077202;28;20441;-73
2022/02/12 01:44:46;;;;;;;2.53;2.33;;;;;;;;;;5064489;28;20445;-73
2022/02/12 01:47:15;;;;;;;4.97;2.43;;;;;;;;;;5077246;28;20464;-73
2022/02/12 01:49:43;;;;;;;7.93;2.63;;;;;;;;;;5077274;28;20440;-73
2022/02/12 01:52:12;;;;;;;2.77;2.50;;;;;;;;;;5077078;28;20948;-73
2022/02/12 01:54:41;;;;;;;3.87;2.10;;;;;;;;;;5077561;28;20447;-72
2022/02/12 01:57:09;;;;;;;6.00;3.00;;;;;;;;;;5081371;28;20469;-73
2022/02/12 01:59:40;;;;;;;3.23;2.70;;;;;;;;;;5081925;28;20451;-73
2022/02/12 02:02:08;;;;;;;3.43;2.50;;;;;;;;;;5080840;28;21050;-73
2022/02/12 02:04:39;;;;;;;6.10;2.63;;;;;;;;;;5081202;28;20458;-73
2022/02/12 02:07:07;;;;;;;4.27;2.33;;;;;;;;;;5081043;28;20840;-73
2022/02/12 02:09:36;;;;;;;6.33;2.90;;;;;;;;;;5081176;28;20886;-73
2022/02/12 02:12:04;;;;;;;3.73;2.20;;;;;;;;;;5081237;28;20440;-73
2022/02/12 02:14:33;;;;;;;4.27;2.97;;;;;;;;;;5081187;28;20444;-73
2022/02/12 02:17:01;;;;;;;3.47;2.60;;;;;;;;;;5080848;28;20475;-73
2022/02/12 02:19:30;;;;;;;8.30;2.97;;;;;;;;;;5080783;28;20931;-73
2022/02/12 02:22:00;;;;;;;8.93;3.47;;;;;;;;;;5080702;28;20498;-73
2022/02/12 02:24:30;;;;;;;5.00;2.33;;;;;;;;;;5080868;28;20444;-73
2022/02/12 02:27:08;;;;;;;6.60;3.00;;;;;;;;;;5077102;28;20479;-72
2022/02/12 02:29:38;;;;;;;2.50;2.30;;;;;;;;;;5079587;28;20502;-73
2022/02/12 02:32:06;;;;;;;4.23;2.60;;;;;;;;;;5080461;28;20439;-73
2022/02/12 02:34:34;;;;;;;4.60;2.50;;;;;;;;;;5080755;28;20448;-73
2022/02/12 02:37:02;;;;;;;5.07;2.83;;;;;;;;;;5080412;28;20498;-73
2022/02/12 02:39:32;;;;;;;4.77;2.77;;;;;;;;;;5080757;28;20448;-73
2022/02/12 02:42:00;;;;;;;5.33;2.90;;;;;;;;;;5080541;28;20484;-72
2022/02/12 02:44:28;;;;;;;4.23;2.30;;;;;;;;;;5080580;28;20440;-72
2022/02/12 02:46:56;;;;;;;4.23;2.90;;;;;;;;;;5080252;28;20471;-72
2022/02/12 02:49:24;;;;;;;3.97;2.77;;;;;;;;;;5080455;28;20444;-72
2022/02/12 02:57:29;;;;;;;4.57;2.60;;;;;;;;;;5076873;28;20820;-73
2022/02/12 02:59:57;;;;;;;3.23;2.90;;;;;;;;;;5080041;28;20445;-72
2022/02/12 03:02:25;;;;;;;7.17;3.00;;;;;;;;;;5079745;28;20987;-73
2022/02/12 03:04:53;;;;;;;5.03;2.97;;;;;;;;;;5080217;28;20445;-72
2022/02/12 03:07:21;;;;;;;4.23;3.30;;;;;;;;;;5078928;28;20993;-72
2022/02/12 03:09:51;;;;;;;5.30;2.80;;;;;;;;;;5080233;28;20452;-72
2022/02/12 03:12:19;;;;;;;4.30;2.60;;;;;;;;;;5080114;28;20504;-72
2022/02/12 03:14:46;;;;;;;3.33;3.03;;;;;;;;;;5080068;28;20449;-72
2022/02/12 03:17:15;;;;;;;5.20;2.27;;;;;;;;;;5079713;28;20963;-72
2022/02/12 03:19:43;;;;;;;6.23;3.40;;;;;;;;;;5079964;28;20446;-72
2022/02/12 03:22:11;;;;;;;6.83;2.80;;;;;;;;;;5079451;28;20496;-72
2022/02/12 03:24:39;;;;;;;4.83;2.90;;;;;;;;;;5079448;28;20806;-71
2022/02/12 03:27:08;;;;;;;5.97;3.73;;;;;;;;;;5079544;28;20460;-71
2022/02/12 03:29:37;;;;;;;10.57;2.90;;;;;;;;;;5079466;28;20467;-72
2022/02/12 03:32:05;;;;;;;3.07;2.80;;;;;;;;;;5079543;28;20436;-71
2022/02/12 03:34:33;;;;;;;6.67;3.63;;;;;;;;;;5079339;28;20444;-72
2022/02/12 03:37:02;;;;;;;4.60;2.97;;;;;;;;;;5079413;28;20471;-71
2022/02/12 03:39:30;;;;;;;5.47;2.90;;;;;;;;;;5079577;28;20958;-72
2022/02/12 03:41:58;;;;;;;3.00;2.70;;;;;;;;;;5079274;28;20518;-72
2022/02/12 03:44:28;;;;;;;7.67;3.70;;;;;;;;;;5079295;28;20444;-71
2022/02/12 03:46:56;;;;;;;4.93;3.27;;;;;;;;;;5075690;28;20878;-71
2022/02/12 03:49:24;;;;;;;3.63;3.03;;;;;;;;;;5079005;28;20445;-71
2022/02/12 03:51:52;;;;;;;6.90;2.77;;;;;;;;;;5079493;28;20437;-71
2022/02/12 03:54:20;;;;;;;3.47;3.07;;;;;;;;;;5079473;28;20433;-71
2022/02/12 03:56:48;;;;;;;6.57;3.60;;;;;;;;;;5079246;28;20471;-72
2022/02/12 03:59:16;;;;;;;5.97;2.93;;;;;;;;;;5079314;28;20436;-72
2022/02/12 04:01:45;;;;;;;5.70;2.83;;;;;;;;;;5078768;28;20488;-72
2022/02/12 04:04:13;;;;;;;6.83;3.03;;;;;;;;;;5078491;28;20958;-71
2022/02/12 04:06:41;;;;;;;3.83;2.70;;;;;;;;;;5079027;28;20475;-72
2022/02/12 04:09:09;;;;;;;4.97;2.97;;;;;;;;;;5077576;28;20947;-72
2022/02/12 04:11:37;;;;;;;6.20;3.60;;;;;;;;;;5078828;28;20449;-72
2022/02/12 04:14:05;;;;;;;2.83;2.60;;;;;;;;;;5078597;28;20467;-72
2022/02/12 04:16:33;;;;;;;3.33;2.90;;;;;;;;;;5078254;28;21005;-72
2022/02/12 04:19:02;;;;;;;6.27;2.90;;;;;;;;;;5078545;28;20467;-71
2022/02/12 04:21:30;;;;;;;4.10;2.90;;;;;;;;;;5078572;28;20484;-72
2022/02/12 04:23:58;;;;;;;5.97;3.40;;;;;;;;;;5078769;28;20444;-71
2022/02/12 04:26:26;;;;;;;5.37;3.27;;;;;;;;;;5078353;28;20456;-72
2022/02/12 04:28:54;;;;;;;6.90;3.20;;;;;;;;;;5078574;28;20451;-71
2022/02/12 04:31:23;;;;;;;6.23;3.60;;;;;;;;;;5078294;28;20444;-72
2022/02/12 04:33:51;;;;;;;7.20;3.90;;;;;;;;;;5078317;28;20450;-72
2022/02/12 04:36:20;;;;;;;6.73;2.77;;;;;;;;;;5078398;28;20478;-72
2022/02/12 04:38:48;;;;;;;6.00;3.57;;;;;;;;;;5078219;28;20445;-72
2022/02/12 04:41:16;;;;;;;3.50;3.00;;;;;;;;;;5077922;28;21052;-72
2022/02/12 04:43:59;;;;;;;5.60;3.57;;;;;;;;;;5078306;28;20517;-72
2022/02/12 04:46:27;;;;;;;8.30;3.07;;;;;;;;;;5077923;28;20551;-72
2022/02/12 04:48:55;;;;;;;3.37;3.13;;;;;;;;;;5078300;28;20528;-72
2022/02/12 04:51:24;;;;;;;3.40;3.20;;;;;;;;;;5078149;28;20448;-71
2022/02/12 04:53:52;;;;;;;4.20;3.17;;;;;;;;;;5078189;28;20440;-71
2022/02/12 04:56:20;;;;;;;5.90;2.83;;;;;;;;;;5077898;28;20979;-72
2022/02/12 04:58:48;;;;;;;4.73;2.47;;;;;;;;;;5078003;28;20806;-72
2022/02/12 05:01:22;;;;;;;5.27;3.60;;;;;;;;;;5077738;28;20466;-72
2022/02/12 05:03:51;;;;;;;4.67;3.10;;;;;;;;;;5077956;28;20479;-72
2022/02/12 05:06:20;;;;;;;5.93;3.03;;;;;;;;;;5078079;28;21005;-72
2022/02/12 05:08:49;;;;;;;4.73;3.40;;;;;;;;;;5077756;28;20467;-72
2022/02/12 05:11:17;;;;;;;6.30;3.97;;;;;;;;;;5078041;28;20519;-71
2022/02/12 05:13:45;;;;;;;3.37;2.80;;;;;;;;;;5077998;28;20441;-72
2022/02/12 05:16:13;;;;;;;4.43;3.30;;;;;;;;;;5077663;28;20460;-72
2022/02/12 05:18:41;;;;;;;4.13;3.10;;;;;;;;;;5069999;28;20536;-72
2022/02/12 05:21:09;;;;;;;4.87;3.17;;;;;;;;;;5077968;28;20447;-72
2022/02/12 05:23:37;;;;;;;3.03;2.47;;;;;;;;;;5077796;28;20480;-72
2022/02/12 05:26:06;;;;;;;4.93;3.17;;;;;;;;;;5077743;28;20467;-72
2022/02/12 05:28:34;;;;;;;3.67;2.70;;;;;;;;;;5077853;28;20449;-72
2022/02/12 05:31:02;;;;;;;4.00;3.10;;;;;;;;;;5077130;28;20445;-71
2022/02/12 05:33:31;;;;;;;5.60;3.27;;;;;;;;;;5077239;28;20445;-71
2022/02/12 05:35:58;;;;;;;3.23;2.67;;;;;;;;;;5077557;28;20551;-72
2022/02/12 05:38:27;;;;;;;6.03;3.80;;;;;;;;;;5077533;28;20535;-72
2022/02/12 05:40:55;;;;;;;7.10;3.13;;;;;;;;;;5077675;28;20441;-71
2022/02/12 05:43:24;;;;;;;8.40;3.70;;;;;;;;;;5064051;28;20480;-72
2022/02/12 05:45:52;;;;;;;7.63;3.70;;;;;;;;;;5077334;28;20445;-72
2022/02/12 05:48:21;;;;;;;5.33;3.00;;;;;;;;;;5077519;28;20448;-72
2022/02/12 05:50:49;;;;;;;5.23;3.53;;;;;;;;;;5077401;28;20872;-73
2022/02/12 05:53:16;;;;;;;11.03;4.23;;;;;;;;;;5077235;28;20806;-72
2022/02/12 05:55:44;;;;;;;5.73;4.00;;;;;;;;;;5077044;28;20441;-72
2022/02/12 05:58:12;;;;;;;10.43;4.27;;;;;;;;;;5077322;28;20785;-72
2022/02/12 06:00:42;;;;;;;7.87;4.07;;;;;;;;;;5076797;28;20940;-72
2022/02/12 06:03:10;;;;;;;7.30;4.23;;;;;;;;;;5075042;28;20487;-72
2022/02/12 06:05:38;;;;;;;4.87;3.60;;;;;;;;;;5076033;28;20433;-72
2022/02/12 06:08:06;;;;;;;7.70;4.23;;;;;;;;;;5077707;28;20520;-72
2022/02/12 06:10:34;;;;;;;7.03;4.23;;;;;;;;;;5076797;28;20436;-72
2022/02/12 06:13:02;;;;;;;6.60;3.53;;;;;;;;;;5076760;28;20441;-72
2022/02/12 06:15:35;;;;;;;6.70;3.83;;;;;;;;;;5076442;28;20442;-72
2022/02/12 06:18:05;;;;;;;5.07;3.73;;;;;;;;;;5073820;28;20501;-72
2022/02/12 06:20:33;;;;;;;10.83;3.70;;;;;;;;;;5076775;28;20475;-72
2022/02/12 06:23:01;;;;;;;8.23;4.73;;;;;;;;;;5076387;28;20480;-72
2022/02/12 06:25:29;;;;;;;7.83;4.20;;;;;;;;;;5076468;28;20437;-73
2022/02/12 06:27:59;;;;;;;6.50;3.97;;;;;;;;;;5076295;28;20467;-72
2022/02/12 06:30:26;;;;;;;11.37;4.27;;;;;;;;;;5073774;28;20436;-73
2022/02/12 06:32:59;;;;;;;7.40;4.50;;;;;;;;;;5076482;28;20439;-73
2022/02/12 06:35:29;;;;;;;7.13;4.07;;;;;;;;;;5074370;28;20456;-73
2022/02/12 06:37:59;;;;;;;8.43;4.23;;;;;;;;;;5076207;28;20467;-73
2022/02/12 06:40:28;;;;;;;7.17;4.30;;;;;;;;;;5075845;28;20441;-73
2022/02/12 06:42:56;;;;;;;5.53;4.23;;;;;;;;;;5077019;28;20488;-72
2022/02/12 06:45:24;;;;;;;6.07;4.63;;;;;;;;;;5076711;28;20464;-72
2022/02/12 06:47:52;;;;;;;7.77;4.77;;;;;;;;;;5079143;28;20456;-72
2022/02/12 06:50:20;;;;;;;8.87;4.00;;;;;;;;;;5079630;28;20496;-72
2022/02/12 06:52:49;;;;;;;4.80;3.53;;;;;;;;;;5080052;28;20456;-72
2022/02/12 06:55:17;;;;;;;6.00;4.20;;;;;;;;;;5079742;28;20436;-73
2022/02/12 06:57:45;;;;;;;9.80;4.60;;;;;;;;;;5079534;28;20464;-73
2022/02/12 07:00:14;;;;;;;5.73;3.80;;;;;;;;;;5079434;28;20954;-74
2022/02/12 07:02:42;;;;;;;5.70;4.00;;;;;;;;;;5079438;28;21016;-73
2022/02/12 07:05:10;;;;;;;7.60;4.60;;;;;;;;;;5080148;28;20939;-73
2022/02/12 07:07:45;;;;;;;8.10;4.17;;;;;;;;;;5079928;28;20456;-73
2022/02/12 07:10:14;;;;;;;5.77;4.50;;;;;;;;;;5079458;28;20432;-72
2022/02/12 07:12:43;;;;;;;5.30;4.27;;;;;;;;;;5079747;28;20464;-72
2022/02/12 07:15:11;;;;;;;9.77;4.77;;;;;;;;;;5078768;28;20439;-72
2022/02/12 07:17:40;;;;;;;7.47;5.47;;;;;;;;;;5075297;28;20465;-72
2022/02/12 07:20:10;;;;;;;9.10;5.27;;;;;;;;;;5074263;28;20440;-72
2022/02/12 07:22:40;;;;;;;8.83;4.80;;;;;;;;;;5078030;28;20556;-72
2022/02/12 07:25:08;;;;;;;8.43;5.43;;;;;;;;;;5079107;28;20507;-72
2022/02/12 07:27:38;;;;;;;10.40;4.83;;;;;;;;;;5079266;28;20528;-73
2022/02/12 07:30:08;;;;;;;7.57;4.50;;;;;;;;;;5078741;28;20805;-73
2022/02/12 07:32:36;;;;;;;6.13;4.20;;;;;;;;;;5079430;28;20445;-73
2022/02/12 07:35:05;;;;;;;6.70;4.37;;;;;;;;;;5079308;28;20475;-73
2022/02/12 07:37:33;;;;;;;5.33;4.83;;;;;;;;;;5079572;28;20468;-73
2022/02/12 07:40:01;;;;;;;10.20;4.70;;;;;;;;;;5079760;28;20931;-73
2022/02/12 07:42:29;;;;;;;9.33;3.97;;;;;;;;;;5079541;28;20455;-73
2022/02/12 07:44:59;;;;;;;5.47;3.83;;;;;;;;;;5079131;28;20490;-73
2022/02/12 07:47:27;;;;;;;5.57;4.70;;;;;;;;;;5079196;28;20843;-72
2022/02/12 07:49:55;;;;;;;6.93;4.23;;;;;;;;;;5079225;28;20456;-72
2022/02/12 07:52:23;;;;;;;8.27;5.13;;;;;;;;;;5079522;28;20546;-72
2022/02/12 07:54:51;;;;;;;8.63;4.50;;;;;;;;;;5078793;28;20459;-73
2022/02/12 07:57:19;;;;;;;7.97;4.50;;;;;;;;;;5076739;28;20464;-72
2022/02/12 07:59:46;;;;;;;6.07;4.27;;;;;;;;;;5078592;28;20962;-69
2022/02/12 08:02:16;;;;;;;9.60;4.80;;;;;;;;;;5078692;28;20941;-69
2022/02/12 08:04:44;;;;;;;5.67;4.30;;;;;;;;;;5078044;28;20484;-69
2022/02/12 08:07:31;;;;;;;7.53;4.83;;;;;;;;;;5077829;28;20547;-69
2022/02/12 08:10:00;;;;;;;7.10;4.70;;;;;;;;;;5077444;28;20437;-69
2022/02/12 08:12:28;;;;;;;6.27;5.20;;;;;;;;;;5077310;28;20939;-69
2022/02/12 08:14:57;;;;;;;7.13;4.67;;;;;;;;;;5077433;28;20451;-69
2022/02/12 08:17:27;;;;;;;4.50;4.13;;;;;;;;;;5076797;28;20478;-69
2022/02/12 08:19:55;;;;;;;6.50;4.03;;;;;;;;;;5077558;28;20444;-69
2022/02/12 08:22:23;;;;;;;5.17;4.23;;;;;;;;;;5074526;28;20464;-70
2022/02/12 08:24:51;;;;;;;6.30;4.57;;;;;;;;;;5076966;28;20480;-69
2022/02/12 08:27:19;;;;;;;8.23;5.03;;;;;;;;;;5076981;28;20553;-70
2022/02/12 08:29:46;;;;;;;4.70;4.27;;;;;;;;;;5076643;28;20803;-69
2022/02/12 08:32:14;;;;;;;7.10;5.13;;;;;;;;;;5077804;28;20805;-70
2022/02/12 08:34:44;;;;;;;7.90;4.37;;;;;;;;;;5077468;28;20443;-70
2022/02/12 08:37:13;;;;;;;12.07;5.13;;;;;;;;;;5077917;28;20470;-71
2022/02/12 08:39:47;;;;;;;8.33;5.23;;;;;;;;;;5073812;28;20456;-72
2022/02/12 08:42:15;;;;;;;6.33;4.27;;;;;;;;;;5079191;28;20448;-69
2022/02/12 08:44:43;;;;;;;8.27;4.90;;;;;;;;;;5085006;28;20471;-70
2022/02/12 08:47:11;;;;;;;6.90;4.70;;;;;;;;;;5088234;28;20456;-69
2022/02/12 08:49:40;;;;;;;7.40;4.57;;;;;;;;;;5086487;28;20468;-69
2022/02/12 08:52:10;;;;;;;7.00;4.60;;;;;;;;;;5080688;28;20460;-69
2022/02/12 08:54:38;;;;;;;6.37;5.03;;;;;;;;;;5075404;28;20436;-69
2022/02/12 08:57:06;;;;;;;7.67;5.10;;;;;;;;;;5088131;28;20463;-71
2022/02/12 08:59:34;;;;;;;6.43;5.40;;;;;;;;;;5083331;28;20459;-72
2022/02/12 09:02:12;;;;;;;7.00;4.77;;;;;;;;;;5077732;28;20924;-73
2022/02/12 09:04:40;;;;;;;9.53;4.87;;;;;;;;;;5077143;28;20480;-71
2022/02/12 09:07:11;;;;;;;8.20;4.27;;;;;;;;;;5077405;28;20449;-72
2022/02/12 09:09:42;;;;;;;7.77;5.03;;;;;;;;;;5073833;28;20441;-71
2022/02/12 09:12:10;;;;;;;7.77;5.30;;;;;;;;;;5072314;28;20444;-71
2022/02/12 09:14:38;;;;;;;9.50;5.00;;;;;;;;;;5077663;28;20490;-71
2022/02/12 09:17:06;;;;;;;5.03;4.10;;;;;;;;;;5077535;28;20472;-71
2022/02/12 09:19:35;;;;;;;9.03;4.97;;;;;;;;;;5080128;28;20448;-71
2022/02/12 09:22:03;;;;;;;6.33;4.57;;;;;;;;;;5087370;28;20472;-71
2022/02/12 09:24:34;;;;;;;7.47;5.53;;;;;;;;;;5085340;28;20504;-71
2022/02/12 09:27:02;;;;;;;8.77;5.23;;;;;;;;;;5082703;28;20463;-70
2022/02/12 09:29:30;;;;;;;11.30;5.03;;;;;;;;;;5086086;28;20451;-70
2022/02/12 09:31:58;;;;;;;6.80;5.00;;;;;;;;;;5084768;28;20437;-70
2022/02/12 09:34:26;;;;;;;8.57;4.50;;;;;;;;;;5087826;28;20434;-70
2022/02/12 09:36:54;;;;;;;4.77;3.53;;;;;;;;;;5085632;28;20448;-71
2022/02/12 09:39:22;;;;;;;5.13;3.87;;;;;;;;;;5083289;28;21022;-71
2022/02/12 09:41:51;;;;;;;5.33;3.30;;;;;;;;;;5082918;28;20452;-71
2022/02/12 09:44:19;;;;;;;6.80;3.97;;;;;;;;;;5084933;28;20487;-71
2022/02/12 09:47:17;;;;;;;6.80;3.97;;;;;;;;;;5085938;28;21043;-73
2022/02/12 09:49:46;;;;;;;9.17;4.70;;;;;;;;;;5015319;28;20457;-71
2022/02/12 09:52:16;;;;;;;5.50;4.03;;;;;;;;;;5068029;28;20472;-71
2022/02/12 09:54:45;;;;;;;4.67;3.77;;;;;;;;;;5077327;28;20445;-70
2022/02/12 09:57:14;;;;;;;7.10;3.80;;;;;;;;;;5071376;28;20470;-72
2022/02/12 09:59:42;;;;;;;7.03;4.23;;;;;;;;;;5076648;28;20452;-72
2022/02/12 10:02:16;;;;;;;6.80;4.33;;;;;;;;;;5077157;28;20454;-71
2022/02/12 10:04:44;;;;;;;5.43;4.27;;;;;;;;;;5077056;28;20482;-71
2022/02/12 10:07:22;;;;;;;7.07;3.80;;;;;;;;;;5077496;28;20471;-71
2022/02/12 10:10:10;;;;;;;6.03;3.70;;;;;;;;;;5076972;28;20949;-71
2022/02/12 10:12:39;;;;;;;7.57;3.97;;;;;;;;;;5077286;28;20210;-71
2022/02/12 10:15:12;;;;;;;6.63;3.93;;;;;;;;;;5077519;28;20199;-71
2022/02/12 10:17:51;;;;;;;6.10;4.10;;;;;;;;;;5079162;28;20232;-71
2022/02/12 10:20:29;;;;;;;6.27;4.67;;;;;;;;;;5081274;28;20210;-71
2022/02/12 10:23:04;;;;;;;5.20;3.60;;;;;;;;;;5080812;28;20764;-70
2022/02/12 10:25:32;;;;;;;6.17;4.30;;;;;;;;;;5080699;28;20225;-69
2022/02/12 10:28:03;;;;;;;5.67;3.77;;;;;;;;;;5080522;28;20704;-70
2022/02/12 10:30:32;;;;;;;4.67;3.50;;;;;;;;;;5080472;28;20210;-70
2022/02/12 10:33:03;;;;;;;5.87;3.70;;;;;;;;;;5080870;28;20447;-69
2022/02/12 10:35:32;;;;;;;6.90;4.00;;;;;;;;;;5081100;28;20452;-71
2022/02/12 10:38:02;;;;;;;5.40;4.10;;;;;;;;;;5080699;28;20444;-70
2022/02/12 10:40:31;;;;;;;4.77;4.20;;;;;;;;;;5076251;28;20447;-70
2022/02/12 10:43:01;;;;;;;5.27;4.10;;;;;;;;;;5077268;28;20779;-70
2022/02/12 10:45:31;;;;;;;7.80;4.23;;;;;;;;;;5088065;28;20525;-70
2022/02/12 10:48:02;;;;;;;6.07;3.47;;;;;;;;;;5087375;28;20198;-71
2022/02/12 10:50:31;;;;;;;7.07;3.83;;;;;;;;;;5089226;28;20202;-70
2022/02/12 10:53:02;;;;;;;5.10;3.67;;;;;;;;;;5086915;28;20441;-69
2022/02/12 10:55:31;;;;;;;3.97;3.20;;;;;;;;;;5082595;28;21239;-70
2022/02/12 10:58:01;;;;;;;9.30;4.43;;;;;;;;;;5088376;28;20443;-70
2022/02/12 11:00:31;;;;;;;5.40;3.70;;;;;;;;;;5088113;28;20444;-70
2022/02/12 11:03:00;;;;;;;6.83;4.33;;;;;;;;;;5089349;28;20440;-70
2022/02/12 11:05:28;;;;;;;8.03;4.33;;;;;;;;;;5087668;28;21413;-69
2022/02/12 11:07:59;;;;;;;8.57;3.93;;;;;;;;;;5087905;28;20468;-71
2022/02/12 11:10:27;;;;;;;4.43;3.53;;;;;;;;;;5081429;28;20467;-69
2022/02/12 11:12:58;;;;;;;6.00;4.10;;;;;;;;;;5080043;28;20441;-71
2022/02/12 11:15:27;;;;;;;4.87;4.30;;;;;;;;;;5079423;28;20447;-71
2022/02/12 11:18:10;;;;;;;5.37;4.03;;;;;;;;;;5085331;28;20471;-69
2022/02/12 11:20:39;;;;;;;9.63;4.43;;;;;;;;;;5081976;28;20435;-69
2022/02/12 11:23:24;;;;;;;7.60;4.40;;;;;;;;;;5088606;28;20459;-71
2022/02/12 11:25:52;;;;;;;10.23;4.73;;;;;;;;;;5085256;28;20579;-69
2022/02/12 11:28:27;;;;;;;6.50;4.27;;;;;;;;;;5073657;28;20217;-71
2022/02/12 11:31:12;;;;;;;5.00;4.50;;;;;;;;;;5090231;28;20206;-71
2022/02/12 11:34:01;;;;;;;4.93;3.90;;;;;;;;;;5078138;28;20214;-67
2022/02/12 11:36:29;;;;;;;7.03;3.60;;;;;;;;;;5081858;28;20305;-67
2022/02/12 11:39:08;;;;;;;5.37;4.40;;;;;;;;;;5089515;28;20194;-68
2022/02/12 11:41:36;;;;;;;7.23;4.67;;;;;;;;;;5085115;28;20194;-68
2022/02/12 11:44:04;;;;;;;6.97;4.70;;;;;;;;;;5087791;28;20195;-67
2022/02/12 11:46:59;;;;;;;8.77;4.93;;;;;;;;;;5083999;28;20232;-66
2022/02/12 11:49:29;;;;;;;7.47;5.67;;;;;;;;;;5078905;28;20443;-65
2022/02/12 11:51:57;;;;;;;6.30;5.23;;;;;;;;;;5079139;28;20449;-65
2022/02/12 11:54:44;;;;;;;6.80;4.87;;;;;;;;;;5079018;28;20440;-64
2022/02/12 11:57:15;;;;;;;11.73;5.67;;;;;;;;;;5079048;28;20471;-64
2022/02/12 11:59:43;;;;;;;8.73;5.07;;;;;;;;;;5078635;28;20447;-67
2022/02/12 12:02:26;;;;;;;10.80;5.40;;;;;;;;;;5079335;28;20455;-68
2022/02/12 12:05:08;;;;;;;9.00;4.83;;;;;;;;;;5078885;28;20447;-67
2022/02/12 12:07:58;;;;;;;8.53;5.23;;;;;;;;;;5077240;28;21005;-68
2022/02/12 12:10:26;;;;;;;11.67;6.13;;;;;;;;;;5081996;28;20432;-67
2022/02/12 12:12:59;;;;;;;7.83;5.00;;;;;;;;;;5086591;28;20224;-67
2022/02/12 12:15:27;;;;;;;9.77;5.10;;;;;;;;;;5080839;28;20205;-67
2022/02/12 12:17:56;;;;;;;7.33;5.00;;;;;;;;;;5065925;28;20225;-67
2022/02/12 12:20:32;;;;;;;7.43;4.73;;;;;;;;;;5065385;28;20580;-67
2022/02/12 12:23:06;;;;;;;8.47;5.37;;;;;;;;;;5065483;28;20228;-67
2022/02/12 12:25:53;;;;;;;6.90;4.83;;;;;;;;;;5061941;28;20566;-67
2022/02/12 12:28:28;;;;;;;7.17;5.07;;;;;;;;;;5081942;28;20198;-67
2022/02/12 12:30:55;;;;;;;7.63;4.97;;;;;;;;;;5065814;28;20229;-67
2022/02/12 12:33:26;;;;;;;7.13;5.70;;;;;;;;;;5063057;28;20198;-67
2022/02/12 12:35:54;;;;;;;5.23;4.57;;;;;;;;;;5065771;28;20228;-67
2022/02/12 12:38:36;;;;;;;8.27;5.17;;;;;;;;;;5063655;28;20199;-67
2022/02/12 12:41:20;;;;;;;5.77;4.67;;;;;;;;;;5066778;28;20201;-67
2022/02/12 12:43:48;;;;;;;5.70;4.70;;;;;;;;;;5071498;28;20328;-67
2022/02/12 12:46:18;;;;;;;9.40;5.20;;;;;;;;;;5085741;28;20218;-67
2022/02/12 12:48:46;;;;;;;6.53;5.10;;;;;;;;;;5088931;28;20649;-67
2022/02/12 12:51:16;;;;;;;9.83;5.43;;;;;;;;;;5083874;28;20198;-67
2022/02/12 12:53:46;;;;;;;6.30;5.17;;;;;;;;;;5079052;28;20568;-67
2022/02/12 12:56:22;;;;;;;7.30;4.93;;;;;;;;;;5078093;28;20222;-67
2022/02/12 12:59:01;;;;;;;5.63;4.93;;;;;;;;;;5078199;28;20212;-67
2022/02/12 13:01:29;;;;;;;8.63;5.17;;;;;;;;;;5080314;28;20201;-67
2022/02/12 13:03:57;;;;;;;6.00;5.17;;;;;;;;;;5088038;28;20202;-67
2022/02/12 13:06:26;;;;;;;7.83;5.00;;;;;;;;;;5085740;28;20222;-67
2022/02/12 13:08:56;;;;;;;9.03;4.93;;;;;;;;;;5085968;28;20224;-67
2022/02/12 13:11:27;;;;;;;7.87;5.50;;;;;;;;;;5086994;28;20208;-67
2022/02/12 13:14:05;;;;;;;5.87;4.90;;;;;;;;;;5089992;28;20208;-67
2022/02/12 13:16:39;;;;;;;9.57;5.47;;;;;;;;;;5077478;28;20225;-67
2022/02/12 13:19:11;;;;;;;12.50;5.33;;;;;;;;;;5068831;28;20207;-67
2022/02/12 13:21:45;;;;;;;6.03;4.73;;;;;;;;;;5077414;28;20697;-67
2022/02/12 13:24:15;;;;;;;6.17;5.23;;;;;;;;;;5077776;28;20206;-67
2022/02/12 13:26:44;;;;;;;7.67;4.97;;;;;;;;;;5077655;28;21114;-67
2022/02/12 13:29:18;;;;;;;11.03;5.10;;;;;;;;;;5077775;28;20222;-67
2022/02/12 13:31:49;;;;;;;7.73;5.03;;;;;;;;;;5077435;28;20212;-67
2022/02/12 13:34:18;;;;;;;7.53;4.83;;;;;;;;;;5077224;28;20320;-67
2022/02/12 13:36:46;;;;;;;6.90;4.73;;;;;;;;;;5077312;28;20222;-67
2022/02/12 13:39:19;;;;;;;6.60;4.33;;;;;;;;;;5077495;28;20300;-67
2022/02/12 13:41:47;;;;;;;8.33;5.13;;;;;;;;;;5077800;28;20207;-67
2022/02/12 13:44:26;;;;;;;6.27;4.80;;;;;;;;;;5077236;28;20294;-67
2022/02/12 13:46:54;;;;;;;5.43;4.23;;;;;;;;;;5077574;28;20230;-67
2022/02/12 13:49:25;;;;;;;7.00;4.60;;;;;;;;;;5077554;28;20216;-67
2022/02/12 13:51:56;;;;;;;6.57;4.13;;;;;;;;;;5079682;28;20209;-67
2022/02/12 13:54:26;;;;;;;6.20;4.60;;;;;;;;;;5081708;28;20216;-67
2022/02/12 13:56:57;;;;;;;4.80;4.37;;;;;;;;;;5081640;28;20228;-67
2022/02/12 13:59:25;;;;;;;8.53;4.30;;;;;;;;;;5081424;28;20241;-67
2022/02/12 14:01:54;;;;;;;7.43;5.30;;;;;;;;;;5081566;28;20214;-67
2022/02/12 14:04:22;;;;;;;5.40;4.90;;;;;;;;;;5081232;28;20562;-67
2022/02/12 14:06:50;;;;;;;7.43;4.90;;;;;;;;;;5081054;28;20230;-67
2022/02/12 14:09:20;;;;;;;4.77;4.07;;;;;;;;;;5081073;28;20228;-67
2022/02/12 14:11:50;;;;;;;5.33;4.80;;;;;;;;;;5081941;28;20205;-68
2022/02/12 14:14:18;;;;;;;4.90;4.43;;;;;;;;;;5072806;28;20255;-68
2022/02/12 14:16:47;;;;;;;12.30;5.63;;;;;;;;;;5068816;28;20250;-68
2022/02/12 14:19:16;;;;;;;5.07;4.50;;;;;;;;;;5067765;28;20207;-68
2022/02/12 14:21:44;;;;;;;8.97;5.40;;;;;;;;;;5068067;28;20230;-68
2022/02/12 14:24:12;;;;;;;5.50;4.23;;;;;;;;;;5066270;28;20209;-68
2022/02/12 14:26:41;;;;;;;8.57;4.70;;;;;;;;;;5068448;28;20823;-69
2022/02/12 14:29:14;;;;;;;5.70;4.33;;;;;;;;;;5067659;28;20210;-67
2022/02/12 14:31:42;;;;;;;8.27;4.70;;;;;;;;;;5067543;28;21771;-67
2022/02/12 14:34:10;;;;;;;6.13;4.83;;;;;;;;;;5067659;28;20845;-66
2022/02/12 14:36:38;;;;;;;6.77;4.73;;;;;;;;;;5067954;28;20229;-67
2022/02/12 14:39:06;;;;;;;9.03;4.80;;;;;;;;;;5067694;28;20603;-67
2022/02/12 14:41:34;;;;;;;8.43;4.77;;;;;;;;;;5069372;28;20206;-67
2022/02/12 14:44:02;;;;;;;8.00;4.80;;;;;;;;;;5068951;28;20194;-68
2022/02/12 14:46:33;;;;;;;8.13;4.27;;;;;;;;;;5066795;28;20223;-68
2022/02/12 14:49:01;;;;;;;6.73;3.97;;;;;;;;;;5067837;28;20215;-67
2022/02/12 14:51:29;;;;;;;5.00;4.50;;;;;;;;;;5070899;28;20203;-68
2022/02/12 14:53:57;;;;;;;5.40;4.40;;;;;;;;;;5067926;28;20568;-68
2022/02/12 14:56:25;;;;;;;7.90;4.70;;;;;;;;;;5065826;28;20310;-69
2022/02/12 14:58:53;;;;;;;6.50;4.63;;;;;;;;;;5075006;28;20203;-67
2022/02/12 15:01:21;;;;;;;5.93;4.80;;;;;;;;;;5078758;28;20207;-68
2022/02/12 15:03:51;;;;;;;8.13;4.90;;;;;;;;;;5067031;28;20198;-67